createdAt,value
2022-08-05T04:00:42.387Z,70.37
2022-08-05T04:04:59.123Z,69.99
2022-08-05T04:09:11.539Z,70.07
2022-08-05T04:13:23.283Z,70.53
2022-08-05T04:17:55.910Z,69.80
2022-08-05T04:22:11.807Z,69.80
2022-08-05T04:26:23.923Z,70.29
2022-08-05T04:30:36.338Z,70.12
2022-08-05T04:34:47.876Z,69.33
2022-08-05T04:38:59.455Z,69.49
2022-08-05T04:43:16.633Z,70.18
2022-08-05T04:47:28.511Z,69.87
2022-08-05T04:51:50.266Z,70.93
2022-08-05T04:56:33.839Z,70.31
2022-08-05T05:00:43.955Z,71.51
2022-08-05T05:05:03.002Z,70.66
2022-08-05T05:09:17.561Z,70.00
2022-08-05T05:13:32.341Z,68.69
2022-08-05T05:17:56.359Z,68.27
2022-08-05T05:22:23.943Z,68.99
2022-08-05T05:26:39.694Z,68.30
2022-08-05T05:30:51.540Z,69.80
2022-08-05T05:35:03.242Z,69.60
2022-08-05T05:39:14.871Z,70.84
2022-08-05T05:43:58.588Z,70.60
2022-08-05T05:48:08.419Z,70.90
2022-08-05T05:52:28.446Z,70.69
2022-08-05T05:56:42.971Z,69.72
2022-08-05T06:00:54.515Z,70.02
2022-08-05T06:05:16.459Z,71.44
2022-08-05T06:10:00.200Z,71.50
2022-08-05T06:14:00.852Z,71.14
2022-08-05T06:18:13.686Z,71.79
2022-08-05T06:22:33.785Z,70.99
2022-08-05T06:26:51.227Z,70.63
2022-08-05T06:31:11.289Z,70.45
2022-08-05T06:36:07.517Z,71.22
2022-08-05T06:40:02.511Z,72.49
2022-08-05T06:44:14.446Z,73.59
2022-08-05T06:48:50.328Z,74.55
2022-08-05T06:53:11.230Z,73.95
2022-08-05T06:58:02.785Z,73.71
2022-08-05T07:01:55.038Z,73.88
2022-08-05T07:06:13.977Z,75.56
2022-08-05T07:10:32.539Z,75.35
2022-08-05T07:15:03.443Z,74.66
2022-08-05T07:19:44.242Z,75.21
2022-08-05T07:23:52.591Z,74.42
2022-08-05T07:28:09.720Z,74.40
2022-08-05T07:32:24.252Z,74.86
2022-08-05T07:36:37.946Z,74.37
2022-08-05T07:40:55.705Z,74.10
2022-08-05T07:45:13.215Z,73.13
2022-08-05T07:49:27.675Z,74.92
2022-08-05T07:53:50.438Z,75.23
2022-08-05T07:58:03.900Z,74.06
2022-08-05T08:02:17.596Z,73.36
2022-08-05T08:06:30.821Z,72.37
2022-08-05T08:10:42.448Z,70.91
2022-08-05T08:15:02.715Z,70.76
2022-08-05T08:20:00.485Z,70.08
2022-08-05T08:24:03.164Z,70.05
2022-08-05T08:28:18.834Z,68.51
2022-08-05T08:32:47.836Z,68.51
2022-08-05T08:37:05.013Z,68.61
2022-08-05T08:41:17.201Z,68.54
2022-08-05T08:45:30.470Z,67.09
2022-08-05T08:50:12.984Z,65.93
2022-08-05T08:54:17.174Z,65.93
2022-08-05T08:58:43.643Z,64.96
2022-08-05T09:03:00.501Z,63.42
2022-08-05T09:07:19.301Z,62.96
2022-08-05T09:11:53.770Z,61.40
2022-08-05T09:16:14.561Z,58.46
2022-08-05T09:20:36.342Z,59.00
2022-08-05T09:25:13.808Z,59.26
2022-08-05T09:29:48.070Z,61.02
2022-08-05T09:34:02.821Z,61.29
2022-08-05T09:38:16.773Z,62.03
2022-08-05T09:42:39.959Z,60.49
2022-08-05T09:47:10.449Z,60.32
2022-08-05T09:51:38.102Z,62.14
2022-08-05T09:55:58.487Z,61.17
2022-08-05T10:00:19.607Z,61.43
2022-08-05T10:04:39.473Z,61.01
2022-08-05T10:08:53.821Z,59.90
2022-08-05T10:13:09.665Z,59.35
2022-08-05T10:17:37.177Z,58.60
2022-08-05T10:21:50.360Z,57.61
2022-08-05T10:26:05.291Z,57.35
2022-08-05T10:31:20.957Z,56.84
2022-08-05T10:34:50.914Z,56.37
2022-08-05T10:39:11.785Z,56.76
2022-08-05T10:43:48.866Z,57.33
2022-08-05T10:48:39.509Z,58.04
2022-08-05T10:53:04.636Z,57.70
2022-08-05T10:57:26.415Z,57.15
2022-08-05T11:02:03.763Z,57.89
2022-08-05T11:06:17.605Z,58.48
2022-08-05T11:10:30.794Z,59.23
2022-08-05T11:15:11.962Z,58.89
2022-08-05T11:20:11.055Z,58.28
2022-08-05T11:24:29.748Z,58.48
2022-08-05T11:28:46.359Z,58.46
2022-08-05T11:33:34.535Z,57.56
2022-08-05T11:38:29.840Z,56.62
2022-08-05T11:42:31.442Z,57.47
2022-08-05T11:47:09.218Z,56.24
2022-08-05T11:51:43.987Z,55.67
2022-08-05T11:55:55.295Z,56.34
2022-08-05T12:00:29.208Z,57.06
2022-08-05T12:04:47.028Z,56.36
2022-08-05T12:09:11.043Z,57.63
2022-08-05T12:13:48.954Z,57.87
2022-08-05T12:18:03.999Z,57.60
2022-08-05T12:22:27.789Z,56.52
2022-08-05T12:26:44.044Z,54.85
2022-08-05T12:30:57.502Z,53.38
2022-08-05T12:35:16.846Z,52.64
2022-08-05T12:39:37.186Z,52.40
2022-08-05T12:44:00.615Z,51.03
2022-08-05T12:48:26.998Z,51.42
2022-08-05T12:52:55.432Z,50.39
2022-08-05T12:57:14.329Z,50.36
2022-08-05T13:02:03.286Z,51.31
2022-08-05T13:05:58.782Z,50.25
2022-08-05T13:10:15.003Z,49.68
2022-08-05T13:14:40.305Z,50.41
2022-08-05T13:18:58.768Z,50.11
2022-08-05T13:23:11.380Z,50.43
2022-08-05T13:27:36.341Z,51.32
2022-08-05T13:32:04.503Z,50.19
2022-08-05T13:36:16.851Z,49.28
2022-08-05T13:40:47.939Z,48.18
2022-08-05T13:45:00.225Z,47.36
2022-08-05T13:49:12.802Z,46.79
2022-08-05T13:53:24.441Z,45.65
2022-08-05T13:57:51.246Z,44.90
2022-08-05T14:02:04.853Z,45.26
2022-08-05T14:06:26.489Z,45.63
2022-08-05T14:10:38.881Z,45.15
2022-08-05T14:14:51.389Z,45.90
2022-08-05T14:19:04.374Z,47.26
2022-08-05T14:23:24.806Z,47.99
2022-08-05T14:27:37.648Z,47.97
2022-08-05T14:32:11.260Z,48.66
2022-08-05T14:36:25.319Z,49.30
2022-08-05T14:40:37.895Z,49.86
2022-08-05T14:44:50.265Z,49.64
2022-08-05T14:49:07.521Z,49.07
2022-08-05T14:53:19.654Z,48.86
2022-08-05T14:57:34.066Z,48.67
2022-08-05T15:02:14.968Z,48.68
2022-08-05T15:06:30.205Z,49.96
2022-08-05T15:10:43.337Z,50.47
2022-08-05T15:14:58.701Z,51.06
2022-08-05T15:19:23.459Z,51.86
2022-08-05T15:23:35.647Z,51.13
2022-08-05T15:27:51.975Z,51.45
2022-08-05T15:32:05.929Z,51.98
2022-08-05T15:36:24.586Z,52.41
2022-08-05T15:41:03.339Z,51.78
2022-08-05T15:45:11.308Z,52.34
2022-08-05T15:49:40.845Z,51.98
2022-08-05T15:53:54.439Z,52.09
2022-08-05T15:58:06.000Z,52.13
2022-08-05T16:02:19.779Z,52.69
2022-08-05T16:06:37.799Z,53.09
2022-08-05T16:10:49.334Z,51.72
2022-08-05T16:15:01.967Z,52.52
2022-08-05T16:19:14.587Z,51.04
2022-08-05T16:23:54.658Z,50.45
2022-08-05T16:28:09.740Z,54.88
2022-08-05T16:32:23.151Z,55.49
2022-08-05T16:36:41.999Z,56.79
2022-08-05T16:41:00.500Z,55.95
2022-08-05T16:46:04.753Z,54.65
2022-08-05T16:49:44.234Z,56.50
2022-08-05T16:54:05.770Z,52.63
2022-08-05T16:58:27.683Z,51.76
2022-08-05T17:02:39.560Z,54.74
2022-08-05T17:06:53.367Z,55.25
2022-08-05T17:11:05.467Z,55.46
2022-08-05T17:15:20.713Z,55.68
2022-08-05T17:19:32.233Z,55.75
2022-08-05T17:24:04.525Z,55.33
2022-08-05T17:28:16.958Z,54.37
2022-08-05T17:32:28.687Z,53.20
2022-08-05T17:36:40.586Z,53.28
2022-08-05T17:40:52.364Z,53.48
2022-08-05T17:45:18.187Z,52.54
2022-08-05T17:50:00.510Z,51.82
2022-08-05T17:54:07.544Z,51.15
2022-08-05T17:58:21.591Z,51.17
2022-08-05T18:02:44.345Z,51.50
2022-08-05T18:07:00.511Z,51.32
2022-08-05T18:11:23.995Z,52.10
2022-08-05T18:15:38.637Z,52.43
2022-08-05T18:19:51.387Z,53.19
2022-08-05T18:24:05.743Z,52.90
2022-08-05T18:28:22.046Z,53.44
2022-08-05T18:32:39.882Z,53.98
2022-08-05T18:37:05.053Z,54.70
2022-08-05T18:41:58.005Z,54.99
2022-08-05T18:45:56.438Z,54.74
2022-08-05T18:50:44.962Z,55.28
2022-08-05T18:54:58.366Z,55.47
2022-08-05T18:59:43.652Z,54.99
2022-08-05T19:03:54.933Z,55.27
2022-08-05T19:08:13.539Z,55.66
2022-08-05T19:12:29.098Z,55.86
2022-08-05T19:16:47.142Z,55.61
2022-08-05T19:20:59.692Z,56.12
2022-08-05T19:25:29.618Z,56.20
2022-08-05T19:29:43.608Z,56.41
2022-08-05T19:33:57.018Z,56.45
2022-08-05T19:38:09.473Z,55.73
2022-08-05T19:42:35.760Z,56.38
2022-08-05T19:46:47.804Z,56.10
2022-08-05T19:51:04.938Z,55.97
2022-08-05T19:56:14.043Z,55.04
2022-08-05T20:00:00.535Z,55.15
2022-08-05T20:04:23.057Z,55.17
2022-08-05T20:08:35.493Z,54.70
2022-08-05T20:12:49.186Z,55.60
2022-08-05T20:17:04.728Z,55.33
2022-08-05T20:21:17.853Z,55.74
2022-08-05T20:25:33.853Z,55.69
2022-08-05T20:29:57.849Z,55.78
2022-08-05T20:34:11.548Z,55.74
2022-08-05T20:38:27.381Z,56.19
2022-08-05T20:42:40.408Z,56.77
2022-08-05T20:46:55.173Z,56.42
2022-08-05T20:51:08.266Z,56.88
2022-08-05T20:55:54.714Z,56.65
2022-08-05T21:00:21.131Z,56.96
2022-08-05T21:04:23.391Z,57.32
2022-08-05T21:08:42.346Z,57.36
2022-08-05T21:13:08.791Z,57.14
2022-08-05T21:17:27.139Z,57.00
2022-08-05T21:21:50.333Z,57.17
2022-08-05T21:26:02.258Z,57.46
